Charlottetown, Canada
Current Conditions -  °F | °C
As of 12:15 AM on Saturday 25 Oct 2014 (Local Time) from CYYG Reporting Station
Haze Haze  
Wind Chill: 52°   Ceiling: 200
Heat Index: 52°   Visibility: 0.75mi
Dew Point: 52°   Wind: 8mph
Humidity: 100%   Direction: 360°N
Pressure: 29.41"   Gusts: NA
Location:  46.24°N, 63.13°W
Report Text: CYYG 250315Z 36007KT 3/4SM R03/P6000FT/D BR OVC002 11/11 A2941 RMK ST8 SLP961 DENSITY ALT 200FT
Loading
Personal Weather Stations






























Interactive Weather Map
Tropical Storm Tracking
New forecast layout! Learn more

10-Day Weather Forecast

Advertisements
Track Severe Weather on mobile